createdAt,value
2023-03-21T00:11:04.947Z,98493.53
2023-03-21T00:13:39.411Z,98491.81
2023-03-21T00:16:22.292Z,98495.63
2023-03-21T00:18:58.536Z,98500.13
2023-03-21T00:22:03.617Z,98493.06
2023-03-21T00:24:25.520Z,98494.78
2023-03-21T00:37:15.916Z,98481.47
2023-03-21T00:39:56.014Z,98475.28
2023-03-21T00:42:30.085Z,98482.44
2023-03-21T00:45:02.981Z,98473.69
2023-03-21T00:47:36.320Z,98483.38
2023-03-21T00:50:10.942Z,98480.72
2023-03-21T01:03:25.308Z,98479.22
2023-03-21T01:05:59.232Z,98476.63
2023-03-21T01:08:48.537Z,98479.38
2023-03-21T01:11:27.942Z,98472.25
2023-03-21T01:14:18.653Z,98477.56
2023-03-21T01:30:57.935Z,98460.31
2023-03-21T01:33:38.937Z,98469.25
2023-03-21T01:36:18.341Z,98463.91
2023-03-21T01:39:12.624Z,98462.31
2023-03-21T01:41:50.982Z,98459.72
2023-03-21T01:44:34.965Z,98463.34
2023-03-21T01:58:04.885Z,98464.47
2023-03-21T02:00:51.466Z,98465.41
2023-03-21T02:03:40.989Z,98457.53
2023-03-21T02:06:32.282Z,98459.25
2023-03-21T02:09:25.950Z,98456.50
2023-03-21T02:23:43.940Z,98436.84
2023-03-21T02:27:03.426Z,98436.84
2023-03-21T02:30:51.229Z,98443.88
2023-03-21T02:34:16.114Z,98440.25
2023-03-21T02:50:45.988Z,98440.47
2023-03-21T02:53:23.766Z,98438.84
2023-03-21T02:56:07.976Z,98445.97
2023-03-21T02:58:46.474Z,98436.38
2023-03-21T03:01:27.946Z,98439.13
2023-03-21T03:04:02.342Z,98441.88
2023-03-21T03:17:11.917Z,98447.50
2023-03-21T03:20:24.935Z,98438.56
2023-03-21T03:23:12.933Z,98442.06
2023-03-21T03:25:59.951Z,98441.31
2023-03-21T03:28:41.108Z,98438.47
2023-03-21T03:45:06.773Z,98441.59
2023-03-21T03:47:56.338Z,98443.38
2023-03-21T03:50:58.938Z,98438.19
2023-03-21T03:53:56.984Z,98439.88
2023-03-21T04:10:18.955Z,98434.00
2023-03-21T04:12:52.511Z,98435.88
2023-03-21T04:15:31.942Z,98435.31
2023-03-21T04:18:11.862Z,98430.00
2023-03-21T04:20:51.952Z,98434.47
2023-03-21T04:23:28.596Z,98437.03
2023-03-21T04:36:25.904Z,98429.84
2023-03-21T04:39:07.942Z,98432.50
2023-03-21T04:41:45.238Z,98433.44
2023-03-21T04:46:56.405Z,98446.72
2023-03-21T04:49:23.270Z,98432.66
2023-03-21T05:03:02.896Z,98451.47
2023-03-21T05:05:44.951Z,98446.16
2023-03-21T05:08:18.982Z,98446.34
2023-03-21T05:10:51.939Z,98442.91
2023-03-21T05:13:27.236Z,98445.56
2023-03-21T05:16:00.918Z,98446.53
2023-03-21T05:18:34.237Z,98444.81
2023-03-21T05:31:32.915Z,98459.22
2023-03-21T05:34:16.922Z,98455.72
2023-03-21T05:36:51.533Z,98468.16
2023-03-21T05:39:25.949Z,98469.13
2023-03-21T05:42:03.876Z,98470.06
2023-03-21T05:44:43.928Z,98469.13
2023-03-21T05:58:01.164Z,98470.06
2023-03-21T06:00:34.671Z,98469.13
2023-03-21T06:03:28.010Z,98477.81
2023-03-21T06:06:09.302Z,98467.97
2023-03-21T06:09:03.180Z,98475.16
2023-03-21T06:25:40.903Z,98481.34
2023-03-21T06:28:14.911Z,98482.19
2023-03-21T06:30:49.792Z,98481.25
2023-03-21T06:33:27.927Z,98482.03
2023-03-21T06:36:01.252Z,98484.59
2023-03-21T06:38:35.917Z,98483.75
2023-03-21T06:41:13.016Z,98477.66
2023-03-21T06:50:49.933Z,98483.34
2023-03-21T06:53:26.549Z,98480.69
2023-03-21T06:56:32.925Z,98484.97
2023-03-21T06:59:10.328Z,98491.13
2023-03-21T07:02:07.637Z,98492.00
2023-03-21T07:04:47.411Z,98497.31
2023-03-21T07:17:46.905Z,98499.50
2023-03-21T07:20:26.922Z,98501.00
2023-03-21T07:23:00.225Z,98494.00
2023-03-21T07:25:34.990Z,98500.16
2023-03-21T07:28:08.891Z,98502.72
2023-03-21T07:30:42.941Z,98500.84
2023-03-21T07:43:54.913Z,98500.47
2023-03-21T07:46:35.330Z,98511.09
2023-03-21T07:49:08.971Z,98507.50
2023-03-21T07:51:42.561Z,98505.78
2023-03-21T07:54:15.909Z,98506.72
2023-03-21T07:56:49.342Z,98506.72
2023-03-21T07:59:24.912Z,98511.09
2023-03-21T08:12:34.913Z,98510.06
2023-03-21T08:15:11.717Z,98512.81
2023-03-21T08:17:51.913Z,98512.81
2023-03-21T08:20:25.561Z,98517.28
2023-03-21T08:22:58.916Z,98504.06
2023-03-21T08:25:32.355Z,98509.22
2023-03-21T08:38:22.873Z,98509.22
2023-03-21T08:41:02.927Z,98511.72
2023-03-21T08:43:36.193Z,98509.78
2023-03-21T08:46:09.938Z,98507.81
2023-03-21T08:48:43.285Z,98496.13
2023-03-21T09:04:53.931Z,98518.38
2023-03-21T09:07:27.182Z,98525.47
2023-03-21T09:10:20.753Z,98518.38
2023-03-21T09:12:55.896Z,98520.25
2023-03-21T09:15:32.900Z,98518.38
2023-03-21T09:18:06.233Z,98513.88
2023-03-21T09:20:42.066Z,98519.00
2023-03-21T09:30:35.875Z,98514.84
2023-03-21T09:33:15.909Z,98511.03
2023-03-21T09:35:52.209Z,98515.31
2023-03-21T09:38:25.891Z,98507.16
2023-03-21T09:41:15.546Z,98513.03
2023-03-21T09:44:16.910Z,98513.81
2023-03-21T09:57:38.923Z,98518.16
2023-03-21T10:00:21.000Z,98516.47
2023-03-21T10:03:02.912Z,98506.00
2023-03-21T10:05:40.901Z,98513.81
2023-03-21T10:08:26.897Z,98510.16
2023-03-21T10:11:08.748Z,98507.50
2023-03-21T10:24:06.879Z,98502.00
2023-03-21T10:26:47.946Z,98501.72
2023-03-21T10:29:27.258Z,98503.34
2023-03-21T10:32:06.933Z,98506.00
2023-03-21T10:34:45.869Z,98501.41
2023-03-21T10:37:25.906Z,98503.13
2023-03-21T10:40:01.244Z,98508.28
2023-03-21T10:52:55.875Z,98508.22
2023-03-21T10:55:41.116Z,98509.00
2023-03-21T10:58:18.580Z,98514.22
2023-03-21T11:01:03.954Z,98513.16
2023-03-21T11:03:41.760Z,98514.03
2023-03-21T11:17:27.901Z,98498.59
2023-03-21T11:20:15.584Z,98495.00
2023-03-21T11:22:54.098Z,98495.69
2023-03-21T11:25:42.914Z,98486.75
2023-03-21T11:28:21.635Z,98486.53
2023-03-21T11:31:04.968Z,98489.09
2023-03-21T11:44:39.892Z,98461.22
2023-03-21T11:47:13.258Z,98463.59
2023-03-21T11:49:48.132Z,98467.75
2023-03-21T11:52:38.338Z,98461.28
2023-03-21T11:55:42.932Z,98450.41
2023-03-21T11:58:38.718Z,98444.78
2023-03-21T12:11:50.868Z,98433.69
2023-03-21T12:14:42.889Z,98436.16
2023-03-21T12:17:35.572Z,98418.25
2023-03-21T12:20:47.185Z,98421.47
2023-03-21T12:23:49.356Z,98409.50
2023-03-21T12:40:41.870Z,98396.03
2023-03-21T12:43:37.295Z,98395.81
2023-03-21T12:46:26.936Z,98388.56
2023-03-21T12:49:09.198Z,98382.25
2023-03-21T13:05:36.897Z,98365.41
2023-03-21T13:08:18.931Z,98358.84
2023-03-21T13:11:00.268Z,98353.06
2023-03-21T13:13:39.537Z,98349.25
2023-03-21T13:16:27.955Z,98346.00
2023-03-21T13:19:15.552Z,98343.75
2023-03-21T13:32:28.892Z,98327.53
2023-03-21T13:35:19.982Z,98322.84
2023-03-21T13:38:01.252Z,98314.72
2023-03-21T13:40:46.900Z,98309.59
2023-03-21T13:43:39.919Z,98310.31
2023-03-21T13:59:47.934Z,98302.19
2023-03-21T14:02:31.455Z,98298.88
2023-03-21T14:05:23.964Z,98298.25
2023-03-21T14:08:13.920Z,98295.94
2023-03-21T14:11:03.872Z,98291.69
2023-03-21T14:24:59.154Z,98287.91
2023-03-21T14:27:44.481Z,98282.81
2023-03-21T14:30:33.023Z,98280.16
2023-03-21T14:33:17.321Z,98279.41
2023-03-21T14:35:56.909Z,98276.00
2023-03-21T14:38:36.790Z,98277.97
2023-03-21T14:51:35.868Z,98267.75
2023-03-21T14:54:21.885Z,98261.53
2023-03-21T14:57:05.077Z,98253.66
2023-03-21T14:59:47.888Z,98260.91
2023-03-21T15:02:27.068Z,98257.53
2023-03-21T15:05:17.958Z,98255.09
2023-03-21T15:18:34.894Z,98252.41
2023-03-21T15:21:16.247Z,98243.69
2023-03-21T15:24:08.892Z,98247.19
2023-03-21T15:26:45.293Z,98240.88
2023-03-21T15:29:21.714Z,98234.66
2023-03-21T15:31:55.665Z,98238.34
2023-03-21T15:34:35.869Z,98227.66
2023-03-21T15:45:07.862Z,98216.56
2023-03-21T15:47:56.921Z,98219.38
2023-03-21T15:50:39.593Z,98214.16
2023-03-21T15:53:24.873Z,98215.97
2023-03-21T15:56:00.298Z,98215.97
2023-03-21T15:58:41.898Z,98215.97
2023-03-21T16:01:18.976Z,98213.28
2023-03-21T16:14:16.842Z,98210.41
2023-03-21T16:16:56.919Z,98211.34
2023-03-21T16:19:30.121Z,98207.94
2023-03-21T16:22:03.880Z,98209.91
2023-03-21T16:24:37.160Z,98205.75
2023-03-21T16:40:51.871Z,98212.44
2023-03-21T16:43:25.129Z,98213.41
2023-03-21T16:45:58.988Z,98212.66
2023-03-21T16:48:32.251Z,98218.25
2023-03-21T16:53:36.143Z,98223.81
2023-03-21T17:06:00.848Z,98205.84
2023-03-21T17:08:40.879Z,98209.59
2023-03-21T17:11:20.271Z,98216.88
2023-03-21T17:14:00.858Z,98219.66
2023-03-21T17:16:34.738Z,98219.75
2023-03-21T17:19:08.898Z,98216.38
2023-03-21T17:32:20.895Z,98218.03
2023-03-21T17:34:54.132Z,98216.34
2023-03-21T17:37:28.701Z,98211.00
2023-03-21T17:40:02.309Z,98215.59
2023-03-21T17:42:35.878Z,98206.84
2023-03-21T17:45:10.195Z,98213.16
2023-03-21T17:58:43.840Z,98208.53
2023-03-21T18:01:25.970Z,98205.19
2023-03-21T18:03:59.648Z,98208.75
2023-03-21T18:06:32.917Z,98201.06
2023-03-21T18:09:07.504Z,98206.16
2023-03-21T18:11:40.881Z,98199.25
2023-03-21T18:14:18.062Z,98200.44
2023-03-21T18:27:17.293Z,98195.31
2023-03-21T18:32:54.178Z,98198.25
2023-03-21T18:35:27.953Z,98205.38
2023-03-21T18:38:01.185Z,98188.53
2023-03-21T18:40:35.117Z,98197.50
2023-03-21T18:53:46.889Z,98183.66
2023-03-21T18:57:13.279Z,98184.72
2023-03-21T18:59:20.883Z,98180.47
2023-03-21T19:01:54.504Z,98183.16
2023-03-21T19:04:30.281Z,98182.41
2023-03-21T19:21:07.844Z,98181.16
2023-03-21T19:24:22.772Z,98179.44
2023-03-21T19:26:44.332Z,98177.75
2023-03-21T19:29:17.872Z,98183.19
2023-03-21T19:31:51.674Z,98172.66
2023-03-21T19:34:25.862Z,98173.47
2023-03-21T19:47:38.885Z,98169.22
2023-03-21T19:53:11.872Z,98170.31
2023-03-21T19:55:50.241Z,98166.81
2023-03-21T19:58:29.864Z,98157.94
2023-03-21T20:01:06.500Z,98169.47
2023-03-21T20:13:56.844Z,98155.63
2023-03-21T20:16:37.913Z,98164.59
2023-03-21T20:19:14.505Z,98167.25
2023-03-21T20:21:55.376Z,98163.72
2023-03-21T20:24:32.110Z,98167.25
2023-03-21T20:40:46.867Z,98155.84
2023-03-21T20:44:14.062Z,98162.03
2023-03-21T20:46:20.121Z,98154.13
2023-03-21T20:48:53.700Z,98157.88
2023-03-21T20:54:21.196Z,98150.84
2023-03-21T21:07:11.829Z,98158.22
2023-03-21T21:09:53.870Z,98152.03
2023-03-21T21:12:27.136Z,98145.00
2023-03-21T21:15:00.888Z,98151.19
2023-03-21T21:18:02.113Z,98150.34
2023-03-21T21:20:34.868Z,98151.41
2023-03-21T21:33:46.873Z,98159.53
2023-03-21T21:36:21.637Z,98156.88
2023-03-21T21:38:54.873Z,98165.69
2023-03-21T21:41:28.132Z,98161.31
2023-03-21T21:44:01.879Z,98158.66
2023-03-21T21:46:35.284Z,98164.00
2023-03-21T21:59:40.830Z,98164.22
2023-03-21T22:02:20.887Z,98169.56
2023-03-21T22:04:54.771Z,98169.56
2023-03-21T22:07:28.888Z,98166.91
2023-03-21T22:10:02.525Z,98164.34
2023-03-21T22:12:35.842Z,98166.16
2023-03-21T22:15:12.294Z,98168.31
2023-03-21T22:28:00.842Z,98157.66
2023-03-21T22:30:42.849Z,98170.97
2023-03-21T22:33:16.099Z,98173.63
2023-03-21T22:35:49.878Z,98172.78
2023-03-21T22:38:23.256Z,98165.75
2023-03-21T22:41:00.885Z,98170.22
2023-03-21T22:54:13.693Z,98171.41
2023-03-21T22:56:47.122Z,98179.41
2023-03-21T22:59:20.865Z,98183.03
2023-03-21T23:02:01.081Z,98183.03
2023-03-21T23:04:40.863Z,98184.97
2023-03-21T23:21:17.828Z,98192.44
2023-03-21T23:23:58.842Z,98183.72
2023-03-21T23:26:33.768Z,98190.00
2023-03-21T23:29:07.925Z,98187.34
2023-03-21T23:31:41.222Z,98190.00
2023-03-21T23:34:14.871Z,98194.50
2023-03-21T23:47:26.878Z,98179.97
2023-03-21T23:50:00.149Z,98179.25
2023-03-21T23:52:33.880Z,98189.91
2023-03-21T23:55:09.073Z,98182.03
2023-03-21T23:57:44.127Z,98180.34
